Time;durP1;ratioP1;P1;durP2;ratioP2;P2;SDS_P1;SDS_P2;PMS_P1;PMS_P2;Temp;Humidity;BMP_temperature;BMP_pressure;BME280_temperature;BME280_humidity;BME280_pressure;Samples;Min_cycle;Max_cycle;Signal;HPM_P1;HPM_P2
2021/06/08 00:00:59;;;;;;;20.67;17.83;;;19.80;99.90;;;;;;5090073;28;20469;-77
2021/06/08 00:03:26;;;;;;;23.20;18.83;;;19.80;99.90;;;;;;5089429;28;20952;-77
2021/06/08 00:05:54;;;;;;;21.90;18.97;;;19.80;1.00;;;;;;5088503;28;20484;-78
2021/06/08 00:08:22;;;;;;;23.30;18.77;;;19.70;1.00;;;;;;5085046;28;20465;-78
2021/06/08 00:10:50;;;;;;;20.47;18.00;;;19.70;1.00;;;;;;5087324;28;20550;-78
2021/06/08 00:13:17;;;;;;;22.50;17.37;;;19.70;99.90;;;;;;5087423;28;22060;-77
2021/06/08 00:15:47;;;;;;;20.20;17.47;;;19.80;99.90;;;;;;5088695;28;20862;-80
2021/06/08 00:18:14;;;;;;;23.60;20.50;;;19.80;1.00;;;;;;5087658;28;21025;-77
2021/06/08 00:20:42;;;;;;;26.00;18.17;;;19.70;99.90;;;;;;5089288;28;20449;-78
2021/06/08 00:23:10;;;;;;;20.80;17.20;;;19.70;1.00;;;;;;5089061;28;20437;-79
2021/06/08 00:25:38;;;;;;;20.37;17.83;;;19.80;99.90;;;;;;5090103;28;20538;-76
2021/06/08 00:28:07;;;;;;;21.47;16.93;;;19.80;99.90;;;;;;5086854;28;20448;-78
2021/06/08 00:30:35;;;;;;;22.33;17.13;;;19.80;99.90;;;;;;5089157;28;20458;-77
2021/06/08 00:33:05;;;;;;;22.33;18.57;;;19.80;99.90;;;;;;5087560;28;20452;-78
2021/06/08 00:35:32;;;;;;;20.07;17.30;;;19.70;99.90;;;;;;5085015;28;20522;-80
2021/06/08 00:38:00;;;;;;;22.40;18.70;;;19.80;99.90;;;;;;5086659;28;20489;-80
2021/06/08 00:40:28;;;;;;;16.83;15.07;;;19.70;99.90;;;;;;5087325;28;20862;-77
2021/06/08 00:42:56;;;;;;;14.67;11.97;;;19.60;99.90;;;;;;5089673;28;20949;-77
2021/06/08 00:45:24;;;;;;;11.43;10.00;;;19.60;1.00;;;;;;5089230;28;20507;-78
2021/06/08 00:47:52;;;;;;;12.10;10.80;;;19.60;1.00;;;;;;5088820;28;20853;-76
2021/06/08 00:50:21;;;;;;;8.63;7.77;;;19.50;99.90;;;;;;5086645;28;20449;-77
2021/06/08 00:52:52;;;;;;;9.30;8.23;;;19.40;99.90;;;;;;5088055;28;20467;-77
2021/06/08 00:55:20;;;;;;;9.53;5.70;;;19.40;1.00;;;;;;5088322;28;20465;-77
2021/06/08 00:57:49;;;;;;;8.13;6.73;;;19.30;1.00;;;;;;5089373;28;20506;-78
2021/06/08 01:00:18;;;;;;;6.90;6.20;;;19.20;1.00;;;;;;5088981;28;20513;-79
2021/06/08 01:02:46;;;;;;;5.13;4.63;;;19.20;99.90;;;;;;5083235;28;20981;-78
2021/06/08 01:05:14;;;;;;;9.40;5.23;;;19.30;1.00;;;;;;5086069;28;20819;-79
2021/06/08 01:07:44;;;;;;;5.67;5.10;;;19.40;1.00;;;;;;5086351;28;20502;-79
2021/06/08 01:10:13;;;;;;;6.03;5.00;;;19.40;1.00;;;;;;5085337;28;20464;-77
2021/06/08 01:12:41;;;;;;;5.70;5.20;;;19.50;99.90;;;;;;5088881;28;20485;-77
2021/06/08 01:15:10;;;;;;;5.80;5.20;;;19.50;11.50;;;;;;5087863;28;20485;-77
2021/06/08 01:17:38;;;;;;;5.40;4.67;;;19.60;99.90;;;;;;5087593;28;20518;-79
2021/06/08 01:20:07;;;;;;;5.83;5.33;;;19.60;1.00;;;;;;5086444;28;20525;-79
2021/06/08 01:22:36;;;;;;;5.03;4.53;;;19.60;1.00;;;;;;5088107;28;20464;-77
2021/06/08 01:25:07;;;;;;;5.93;5.43;;;19.50;1.00;;;;;;5087965;28;20861;-79
2021/06/08 01:27:35;;;;;;;5.90;5.40;;;19.60;1.00;;;;;;5086148;28;20875;-76
2021/06/08 01:30:05;;;;;;;5.50;4.90;;;19.50;99.90;;;;;;5087396;28;20448;-77
2021/06/08 01:32:34;;;;;;;6.53;6.00;;;19.50;99.90;;;;;;5087196;28;20459;-79
2021/06/08 01:35:03;;;;;;;7.70;6.90;;;19.50;1.00;;;;;;5087886;28;20507;-77
2021/06/08 01:37:30;;;;;;;7.90;7.10;;;19.50;1.00;;;;;;5086334;28;20460;-77
2021/06/08 01:40:00;;;;;;;7.13;6.50;;;19.50;99.90;;;;;;5085459;28;20947;-76
2021/06/08 01:42:28;;;;;;;6.90;6.20;;;19.50;99.90;;;;;;5083432;28;21135;-77
2021/06/08 01:44:56;;;;;;;8.63;7.83;;;19.50;99.90;;;;;;5085819;28;20498;-78
2021/06/08 01:47:24;;;;;;;9.27;7.97;;;19.60;99.90;;;;;;5086585;28;20589;-78
2021/06/08 01:49:51;;;;;;;8.70;7.80;;;19.60;99.90;;;;;;5084838;28;20906;-78
2021/06/08 01:52:30;;;;;;;13.43;10.10;;;19.60;1.00;;;;;;5088608;28;20454;-78
2021/06/08 01:55:04;;;;;;;12.70;10.47;;;19.60;99.90;;;;;;5119165;27;20473;-79
2021/06/08 01:57:38;;;;;;;14.00;12.10;;;19.60;99.90;;;;;;5088283;28;20517;-79
2021/06/08 02:00:08;;;;;;;18.10;14.93;;;19.60;99.90;;;;;;5086325;28;20957;-78
2021/06/08 02:02:42;;;;;;;16.03;13.50;;;19.60;1.00;;;;;;5088265;28;20534;-79
2021/06/08 02:05:20;;;;;;;15.27;13.67;;;19.60;70.40;;;;;;5084301;28;20485;-76
2021/06/08 02:07:55;;;;;;;19.57;14.77;;;19.60;99.90;;;;;;5086191;28;21179;-75
2021/06/08 02:10:47;;;;;;;16.80;14.87;;;19.60;99.90;;;;;;5086646;28;20453;-78
2021/06/08 02:13:32;;;;;;;19.83;16.63;;;19.60;99.90;;;;;;5087345;28;20449;-78
2021/06/08 02:16:07;;;;;;;21.57;16.27;;;19.60;1.00;;;;;;5087317;28;21037;-79
2021/06/08 02:18:36;;;;;;;24.40;17.73;;;19.60;22.10;;;;;;5082573;28;20575;-77
2021/06/08 02:21:08;;;;;;;22.77;18.07;;;19.60;99.90;;;;;;5080331;28;20453;-76
2021/06/08 02:23:36;;;;;;;24.00;18.67;;;19.60;99.90;;;;;;5087414;28;20517;-79
2021/06/08 02:26:06;;;;;;;22.00;19.00;;;19.60;99.90;;;;;;5085983;28;20477;-79
2021/06/08 02:28:39;;;;;;;27.27;20.43;;;19.60;99.90;;;;;;5086786;28;20789;-78
2021/06/08 02:31:08;;;;;;;23.30;19.17;;;19.60;99.90;;;;;;5086068;28;20457;-75
2021/06/08 02:33:38;;;;;;;26.73;19.23;;;19.60;99.90;;;;;;5088217;28;20453;-77
2021/06/08 02:36:08;;;;;;;25.60;18.50;;;19.60;99.90;;;;;;5087651;28;20465;-77
2021/06/08 02:38:37;;;;;;;21.40;17.20;;;19.60;99.90;;;;;;5085710;28;21245;-77
2021/06/08 02:41:07;;;;;;;25.10;19.13;;;19.60;99.90;;;;;;5090426;28;20512;-77
2021/06/08 02:43:37;;;;;;;21.97;17.80;;;19.60;99.90;;;;;;5071746;28;20442;-77
2021/06/08 02:46:06;;;;;;;26.43;18.23;;;19.60;99.90;;;;;;5084637;28;20539;-75
2021/06/08 02:48:36;;;;;;;23.80;19.07;;;19.60;99.90;;;;;;5090604;28;20853;-77
2021/06/08 02:51:06;;;;;;;20.87;17.63;;;19.60;99.90;;;;;;5087607;28;20449;-77
2021/06/08 02:53:35;;;;;;;23.60;17.40;;;19.60;99.90;;;;;;5090070;28;20448;-79
2021/06/08 02:56:06;;;;;;;20.53;18.13;;;19.60;99.90;;;;;;5091843;28;20469;-77
2021/06/08 02:58:36;;;;;;;21.63;17.60;;;19.60;99.90;;;;;;5089346;28;20968;-78
2021/06/08 03:01:05;;;;;;;25.10;18.30;;;19.60;99.90;;;;;;5090825;28;20465;-79
2021/06/08 03:03:36;;;;;;;19.40;15.33;;;19.50;99.90;;;;;;5089405;28;20465;-80
2021/06/08 03:06:08;;;;;;;17.63;13.07;;;19.50;99.90;;;;;;5090286;28;20477;-76
2021/06/08 03:08:40;;;;;;;15.63;13.33;;;19.50;99.90;;;;;;5082336;28;20862;-75
2021/06/08 03:11:11;;;;;;;18.33;15.60;;;19.60;62.10;;;;;;5091760;28;20975;-76
2021/06/08 03:13:41;;;;;;;17.07;14.80;;;19.50;51.30;;;;;;5088889;28;20458;-77
2021/06/08 03:16:11;;;;;;;23.60;17.17;;;19.60;99.90;;;;;;5090647;28;20465;-77
2021/06/08 03:18:41;;;;;;;20.17;16.07;;;19.60;99.90;;;;;;5085535;28;20465;-78
2021/06/08 03:21:13;;;;;;;25.10;18.20;;;19.60;99.90;;;;;;5088602;28;20460;-78
2021/06/08 03:23:47;;;;;;;20.97;18.10;;;19.50;99.90;;;;;;5089963;28;20487;-78
2021/06/08 03:26:16;;;;;;;21.70;17.50;;;19.50;99.90;;;;;;5089906;28;22219;-77
2021/06/08 03:28:47;;;;;;;22.17;17.27;;;19.50;99.90;;;;;;5089249;28;21929;-78
2021/06/08 03:31:15;;;;;;;23.13;16.30;;;19.50;99.90;;;;;;5087624;28;20461;-78
2021/06/08 03:33:43;;;;;;;18.50;16.20;;;19.60;99.90;;;;;;5089690;28;20457;-79
2021/06/08 03:36:12;;;;;;;22.10;17.10;;;19.60;99.90;;;;;;5090604;28;20526;-79
2021/06/08 03:38:40;;;;;;;22.97;16.67;;;19.50;99.90;;;;;;5122333;27;20534;-76
2021/06/08 03:41:09;;;;;;;22.30;17.90;;;19.60;99.90;;;;;;5090056;28;20924;-77
2021/06/08 03:43:38;;;;;;;21.80;14.87;;;19.50;99.90;;;;;;5090102;28;21006;-75
2021/06/08 03:46:07;;;;;;;22.40;16.97;;;19.50;99.90;;;;;;5084114;28;20482;-80
2021/06/08 03:48:36;;;;;;;20.13;16.00;;;19.50;99.90;;;;;;5087001;28;20450;-77
2021/06/08 03:51:04;;;;;;;23.10;16.30;;;19.60;99.90;;;;;;5123562;27;20517;-77
2021/06/08 03:53:32;;;;;;;20.10;15.80;;;19.60;99.90;;;;;;5088168;28;20893;-79
2021/06/08 03:56:00;;;;;;;19.93;15.63;;;19.60;99.90;;;;;;5089626;28;20475;-80
2021/06/08 03:58:29;;;;;;;23.47;17.47;;;19.50;99.90;;;;;;5075914;28;20850;-80
2021/06/08 04:00:59;;;;;;;21.50;16.40;;;19.50;99.90;;;;;;5085092;28;20679;-77
2021/06/08 04:03:30;;;;;;;23.83;17.20;;;19.60;99.90;;;;;;5094419;28;20544;-77
2021/06/08 04:05:58;;;;;;;25.00;17.73;;;19.50;99.90;;;;;;5086758;28;20481;-77
2021/06/08 04:08:26;;;;;;;24.87;18.83;;;19.50;99.90;;;;;;5089245;28;20549;-77
2021/06/08 04:10:55;;;;;;;27.87;20.27;;;19.50;99.90;;;;;;5087240;28;20476;-76
2021/06/08 04:13:23;;;;;;;27.97;18.40;;;19.60;99.90;;;;;;5121185;27;20828;-78
2021/06/08 04:15:52;;;;;;;29.70;19.47;;;19.60;99.90;;;;;;5086094;28;20473;-77
2021/06/08 04:18:20;;;;;;;29.20;20.07;;;19.50;99.90;;;;;;5089969;28;20446;-77
2021/06/08 04:20:54;;;;;;;29.90;21.30;;;19.50;99.90;;;;;;5089160;28;20457;-78
2021/06/08 04:23:25;;;;;;;28.23;20.77;;;19.50;99.90;;;;;;5090091;28;21040;-76
2021/06/08 04:25:53;;;;;;;30.17;21.90;;;19.50;99.90;;;;;;5086357;28;20527;-76
2021/06/08 04:28:21;;;;;;;32.30;19.93;;;19.50;1.00;;;;;;5085618;28;20774;-77
2021/06/08 04:30:51;;;;;;;31.53;22.23;;;19.60;1.00;;;;;;5088684;28;20546;-80
2021/06/08 04:33:21;;;;;;;33.90;22.63;;;19.50;1.00;;;;;;5088715;28;20456;-79
2021/06/08 04:35:51;;;;;;;31.93;22.53;;;19.60;1.00;;;;;;5090366;28;20615;-80
2021/06/08 04:38:20;;;;;;;32.30;20.27;;;19.50;1.00;;;;;;5087632;28;20455;-79
2021/06/08 04:40:49;;;;;;;29.17;22.33;;;19.50;1.00;;;;;;5099491;28;20450;-78
2021/06/08 04:43:21;;;;;;;32.17;21.87;;;19.50;1.00;;;;;;5088308;28;20457;-78
2021/06/08 04:45:50;;;;;;;27.33;19.57;;;19.50;1.00;;;;;;5079126;28;21072;-79
2021/06/08 04:48:18;;;;;;;29.33;22.00;;;19.50;1.00;;;;;;5082711;28;20484;-79
2021/06/08 04:50:45;;;;;;;34.47;21.00;;;19.50;1.00;;;;;;5088844;28;20457;-78
2021/06/08 04:53:14;;;;;;;28.87;20.20;;;19.50;1.00;;;;;;5086608;28;20457;-78
2021/06/08 04:55:42;;;;;;;30.73;21.67;;;19.50;1.00;;;;;;5089885;28;20461;-78
2021/06/08 04:58:10;;;;;;;31.83;22.60;;;19.50;1.00;;;;;;5087068;28;20445;-76
2021/06/08 05:00:41;;;;;;;34.33;22.20;;;19.50;1.00;;;;;;5086900;28;20441;-77
2021/06/08 05:03:13;;;;;;;30.10;22.27;;;19.50;1.00;;;;;;5087144;28;20453;-80
2021/06/08 05:05:44;;;;;;;35.90;23.07;;;19.50;1.00;;;;;;5085622;28;21073;-79
2021/06/08 05:08:18;;;;;;;30.27;21.07;;;19.50;1.00;;;;;;5119156;27;20465;-76
2021/06/08 05:10:51;;;;;;;33.37;22.00;;;19.50;1.00;;;;;;5121707;27;20460;-79
2021/06/08 05:13:20;;;;;;;34.70;23.40;;;19.50;1.00;;;;;;5086326;28;20470;-80
2021/06/08 05:15:51;;;;;;;29.10;21.93;;;19.50;1.00;;;;;;5085741;28;20480;-79
2021/06/08 05:18:21;;;;;;;33.17;21.43;;;19.50;1.00;;;;;;5102095;28;20548;-78
2021/06/08 05:20:50;;;;;;;32.93;23.33;;;19.50;1.00;;;;;;5084386;28;20453;-80
2021/06/08 05:23:20;;;;;;;34.30;22.90;;;19.50;1.00;;;;;;5086805;28;21011;-79
2021/06/08 05:25:51;;;;;;;33.80;22.30;;;19.50;1.00;;;;;;5085626;28;20480;-81
2021/06/08 05:28:20;;;;;;;28.67;20.83;;;19.50;1.00;;;;;;5084089;28;20961;-80
2021/06/08 05:30:48;;;;;;;30.67;21.27;;;19.50;1.00;;;;;;5086844;28;20533;-78
2021/06/08 05:33:20;;;;;;;34.00;23.70;;;19.50;1.00;;;;;;5086562;28;20442;-79
2021/06/08 05:35:52;;;;;;;43.43;24.50;;;19.50;1.00;;;;;;5100110;28;20455;-77
2021/06/08 05:38:32;;;;;;;32.13;22.00;;;19.50;1.00;;;;;;5109667;27;20445;-78
2021/06/08 05:41:03;;;;;;;36.50;24.57;;;19.50;1.00;;;;;;5085232;28;20442;-78
2021/06/08 05:43:31;;;;;;;33.23;22.73;;;19.60;1.00;;;;;;5114776;27;20457;-80
2021/06/08 05:45:59;;;;;;;32.90;22.73;;;19.50;1.00;;;;;;5084855;28;20564;-81
2021/06/08 05:48:27;;;;;;;36.47;24.37;;;19.50;1.00;;;;;;5078243;28;20983;-82
2021/06/08 05:50:55;;;;;;;30.00;23.47;;;19.50;1.00;;;;;;5084151;28;20806;-79
2021/06/08 05:53:25;;;;;;;27.57;20.80;;;19.60;1.00;;;;;;5120125;27;20469;-79
2021/06/08 05:55:55;;;;;;;29.47;22.77;;;19.60;1.00;;;;;;5120304;27;20488;-79
2021/06/08 05:58:24;;;;;;;34.03;23.33;;;19.60;1.00;;;;;;5084625;28;20452;-79
2021/06/08 06:00:53;;;;;;;28.33;21.37;;;19.60;1.00;;;;;;5083775;28;20556;-79
2021/06/08 06:03:23;;;;;;;35.47;24.10;;;19.50;1.00;;;;;;5085697;28;20870;-78
2021/06/08 06:05:51;;;;;;;24.03;19.40;;;19.50;1.00;;;;;;5085205;28;20851;-81
2021/06/08 06:08:20;;;;;;;27.80;20.30;;;19.60;1.00;;;;;;5081929;28;20471;-80
2021/06/08 06:10:49;;;;;;;24.57;19.10;;;19.60;1.00;;;;;;5085559;28;20796;-80
2021/06/08 06:13:19;;;;;;;25.03;19.33;;;19.60;1.00;;;;;;5082953;28;20839;-79
2021/06/08 06:15:47;;;;;;;28.63;20.37;;;19.70;1.00;;;;;;5084831;28;20488;-79
2021/06/08 06:18:18;;;;;;;22.03;17.87;;;19.60;1.00;;;;;;5085350;28;20489;-80
2021/06/08 06:20:46;;;;;;;21.87;17.80;;;19.60;1.00;;;;;;5085128;28;20461;-79
2021/06/08 06:23:17;;;;;;;24.27;19.07;;;19.60;1.00;;;;;;5085952;28;20462;-78
2021/06/08 06:25:45;;;;;;;22.70;18.17;;;19.60;1.00;;;;;;5086409;28;20517;-81
2021/06/08 06:28:16;;;;;;;23.53;18.60;;;19.70;1.00;;;;;;5084002;28;20573;-78
2021/06/08 06:30:45;;;;;;;24.73;18.83;;;19.70;99.90;;;;;;5084442;28;20489;-83
2021/06/08 06:33:13;;;;;;;24.00;19.10;;;19.70;1.00;;;;;;5086472;28;20933;-79
2021/06/08 06:35:41;;;;;;;23.23;19.00;;;19.70;99.90;;;;;;5084270;28;21064;-79
2021/06/08 06:38:10;;;;;;;22.90;17.97;;;19.70;99.90;;;;;;5083995;28;21399;-74
2021/06/08 06:40:39;;;;;;;23.50;18.40;;;19.70;99.90;;;;;;5119608;28;20832;-78
2021/06/08 06:43:13;;;;;;;23.23;18.00;;;19.70;99.90;;;;;;5069308;28;20489;-78
2021/06/08 06:45:44;;;;;;;21.00;17.37;;;19.70;99.90;;;;;;5117983;27;20900;-79
2021/06/08 06:48:15;;;;;;;22.40;17.87;;;19.80;99.90;;;;;;5083514;28;20630;-76
2021/06/08 06:50:45;;;;;;;23.57;18.57;;;19.80;99.90;;;;;;5115353;28;20891;-77
2021/06/08 06:53:16;;;;;;;23.00;18.07;;;19.80;99.90;;;;;;5086306;28;20442;-77
2021/06/08 06:55:47;;;;;;;21.37;16.83;;;19.80;99.90;;;;;;5084639;28;20484;-79
2021/06/08 06:58:18;;;;;;;23.03;17.90;;;19.80;99.90;;;;;;5101660;28;20450;-79
2021/06/08 07:00:47;;;;;;;23.57;18.23;;;19.80;99.90;;;;;;5073828;28;20457;-78
2021/06/08 07:03:16;;;;;;;18.40;15.60;;;19.80;99.90;;;;;;5085314;28;20461;-74
2021/06/08 07:05:49;;;;;;;21.97;17.37;;;19.80;99.90;;;;;;5085652;28;20485;-76
2021/06/08 07:08:22;;;;;;;21.17;17.27;;;19.80;99.90;;;;;;5087438;28;20469;-78
2021/06/08 07:10:51;;;;;;;22.90;17.30;;;19.80;99.90;;;;;;5077085;28;20932;-79
2021/06/08 07:13:19;;;;;;;23.00;17.07;;;19.80;99.90;;;;;;5112853;28;20468;-76
2021/06/08 07:15:49;;;;;;;24.47;19.73;;;19.90;99.90;;;;;;5085651;28;20513;-77
2021/06/08 07:18:17;;;;;;;23.80;19.37;;;19.80;99.90;;;;;;5085270;28;20541;-76
2021/06/08 07:20:46;;;;;;;25.80;19.10;;;19.80;99.90;;;;;;5084595;28;20453;-76
2021/06/08 07:23:18;;;;;;;23.03;18.70;;;19.90;99.90;;;;;;5118596;27;20875;-77
2021/06/08 07:25:46;;;;;;;25.90;19.43;;;19.90;99.90;;;;;;5116652;27;20571;-76
2021/06/08 07:28:17;;;;;;;23.90;19.37;;;20.00;1.00;;;;;;5085303;28;20478;-76
2021/06/08 07:30:45;;;;;;;22.97;18.57;;;19.90;1.00;;;;;;5075022;28;20462;-76
2021/06/08 07:33:19;;;;;;;23.37;17.73;;;19.90;72.10;;;;;;5086351;28;20510;-77
2021/06/08 07:35:52;;;;;;;23.90;18.23;;;19.90;1.00;;;;;;5098865;27;20564;-75
2021/06/08 07:38:24;;;;;;;24.80;19.00;;;19.90;85.80;;;;;;5088037;28;20481;-78
2021/06/08 07:40:59;;;;;;;24.23;18.97;;;19.90;79.70;;;;;;5083786;28;20468;-78
2021/06/08 07:43:33;;;;;;;27.13;19.90;;;20.00;1.00;;;;;;5118302;27;20540;-78
2021/06/08 07:46:05;;;;;;;25.23;20.57;;;19.90;1.00;;;;;;5118860;27;20465;-78
2021/06/08 07:48:36;;;;;;;25.93;19.30;;;19.90;1.00;;;;;;5081762;28;20473;-76
2021/06/08 07:51:06;;;;;;;23.87;20.33;;;19.90;1.00;;;;;;5081716;28;20460;-75
2021/06/08 07:53:34;;;;;;;21.87;19.13;;;19.90;1.00;;;;;;5085713;28;20445;-78
2021/06/08 07:56:02;;;;;;;25.63;18.67;;;20.00;92.70;;;;;;5086797;28;20477;-77
2021/06/08 07:58:31;;;;;;;27.30;20.83;;;20.00;1.00;;;;;;5085884;28;20450;-76
2021/06/08 08:00:59;;;;;;;28.07;19.23;;;20.00;53.80;;;;;;5084550;28;20459;-78
2021/06/08 08:03:29;;;;;;;23.80;19.63;;;20.00;1.00;;;;;;5087277;28;21027;-75
2021/06/08 08:06:00;;;;;;;24.83;21.03;;;20.00;80.20;;;;;;5089912;28;20461;-76
2021/06/08 08:08:31;;;;;;;22.63;18.53;;;20.00;99.90;;;;;;5087407;28;20572;-77
2021/06/08 08:10:59;;;;;;;24.83;19.50;;;20.00;99.90;;;;;;5088202;28;20482;-78
2021/06/08 08:13:29;;;;;;;22.47;18.97;;;20.00;1.00;;;;;;5086177;28;20550;-78
2021/06/08 08:16:03;;;;;;;22.63;18.60;;;20.00;79.40;;;;;;5084321;28;20577;-76
2021/06/08 08:18:33;;;;;;;27.20;21.37;;;20.00;3.80;;;;;;5121390;27;20507;-76
2021/06/08 08:21:06;;;;;;;26.37;20.53;;;20.00;1.00;;;;;;5087255;28;20456;-76
2021/06/08 08:23:35;;;;;;;24.47;20.97;;;20.00;99.90;;;;;;5121330;27;20485;-77
2021/06/08 08:26:05;;;;;;;24.87;20.50;;;20.00;1.00;;;;;;5087691;28;20519;-81
2021/06/08 08:28:33;;;;;;;25.00;21.13;;;20.00;1.00;;;;;;5084964;28;20470;-81
2021/06/08 08:31:05;;;;;;;22.97;18.77;;;20.00;1.00;;;;;;5084883;28;20453;-81
2021/06/08 08:33:33;;;;;;;24.27;19.87;;;20.00;23.20;;;;;;5116639;27;20548;-79
2021/06/08 08:36:03;;;;;;;24.33;19.67;;;20.00;99.90;;;;;;5084289;28;20512;-78
2021/06/08 08:38:31;;;;;;;26.57;20.77;;;20.00;42.40;;;;;;5082993;28;20458;-80
2021/06/08 08:41:00;;;;;;;28.40;21.00;;;20.10;11.30;;;;;;5083750;28;20552;-81
2021/06/08 08:43:42;;;;;;;28.20;21.47;;;20.10;30.20;;;;;;5083843;28;20452;-80
2021/06/08 08:46:11;;;;;;;25.77;21.10;;;20.10;1.00;;;;;;5084662;28;20481;-75
2021/06/08 08:48:41;;;;;;;26.40;20.93;;;20.10;99.90;;;;;;5084423;28;20910;-77
2021/06/08 08:51:12;;;;;;;26.47;19.70;;;19.90;1.00;;;;;;5120958;27;20468;-75
2021/06/08 08:53:42;;;;;;;27.10;21.17;;;20.10;99.90;;;;;;5083444;28;20462;-78
2021/06/08 08:56:29;;;;;;;27.47;21.77;;;20.10;1.00;;;;;;5081324;28;20479;-78
2021/06/08 08:58:58;;;;;;;25.90;21.87;;;20.20;1.00;;;;;;5069613;28;20529;-77
2021/06/08 09:01:26;;;;;;;24.70;20.30;;;20.20;1.00;;;;;;5086909;28;20491;-78
2021/06/08 09:03:54;;;;;;;28.23;21.20;;;20.20;1.00;;;;;;5085905;28;21045;-76
2021/06/08 09:06:23;;;;;;;25.57;20.33;;;20.20;99.90;;;;;;5083628;28;20523;-74
2021/06/08 09:08:51;;;;;;;25.73;19.73;;;20.20;1.00;;;;;;5082232;28;20566;-74
2021/06/08 09:11:19;;;;;;;34.40;21.60;;;20.20;99.90;;;;;;5085785;28;20470;-75
2021/06/08 09:13:47;;;;;;;25.90;21.00;;;20.20;99.90;;;;;;5121429;27;20450;-76
2021/06/08 09:16:15;;;;;;;27.40;21.50;;;20.20;99.90;;;;;;5081594;28;20562;-75
2021/06/08 09:18:44;;;;;;;27.40;22.90;;;20.30;99.90;;;;;;5079431;28;20512;-75
2021/06/08 09:21:17;;;;;;;28.57;22.93;;;20.30;99.90;;;;;;5068992;28;20924;-76
2021/06/08 09:23:47;;;;;;;34.17;21.37;;;20.30;1.00;;;;;;5078874;28;20557;-75
2021/06/08 09:26:16;;;;;;;27.33;22.77;;;20.40;99.90;;;;;;5085386;28;20480;-77
2021/06/08 09:28:45;;;;;;;28.37;21.63;;;20.40;99.90;;;;;;5085738;28;20488;-77
2021/06/08 09:31:19;;;;;;;27.23;22.23;;;20.40;99.90;;;;;;5118713;27;20484;-78
2021/06/08 09:33:48;;;;;;;24.63;19.57;;;20.50;99.90;;;;;;5116065;27;20492;-77
2021/06/08 09:36:19;;;;;;;27.90;21.47;;;20.60;99.90;;;;;;5082959;28;20476;-78
2021/06/08 09:38:51;;;;;;;25.67;20.20;;;20.60;1.00;;;;;;5082709;28;20709;-78
2021/06/08 09:41:23;;;;;;;27.43;22.30;;;20.60;99.90;;;;;;5081409;28;20618;-77
2021/06/08 09:44:03;;;;;;;26.53;21.57;;;20.70;99.90;;;;;;5082717;28;20904;-77
2021/06/08 09:46:33;;;;;;;26.93;22.27;;;20.80;1.00;;;;;;5113048;27;20509;-76
2021/06/08 09:49:03;;;;;;;25.97;22.80;;;20.80;99.90;;;;;;5077922;28;20561;-75
2021/06/08 09:51:49;;;;;;;26.77;21.40;;;20.80;38.70;;;;;;5085742;28;20456;-79
2021/06/08 09:54:30;;;;;;;25.90;21.90;;;20.80;1.00;;;;;;5084863;28;20446;-75
2021/06/08 09:57:20;;;;;;;24.10;21.50;;;20.90;99.90;;;;;;5083237;28;20514;-76
2021/06/08 09:59:51;;;;;;;24.30;20.40;;;20.90;1.00;;;;;;5086655;28;20458;-77
2021/06/08 10:02:34;;;;;;;27.50;23.27;;;20.90;99.90;;;;;;5082326;28;21054;-77
2021/06/08 10:05:21;;;;;;;24.30;21.67;;;20.90;99.90;;;;;;5082995;28;20584;-75
2021/06/08 10:07:50;;;;;;;31.50;22.97;;;20.90;99.90;;;;;;5093630;27;20486;-81
2021/06/08 10:10:23;;;;;;;24.60;21.13;;;20.90;99.90;;;;;;5116665;27;20572;-76
2021/06/08 10:12:57;;;;;;;23.43;20.80;;;20.90;99.90;;;;;;5118185;27;20487;-76
2021/06/08 10:15:27;;;;;;;25.13;22.30;;;21.00;1.00;;;;;;5117197;27;20849;-78
2021/06/08 10:18:03;;;;;;;25.27;22.57;;;20.90;1.00;;;;;;5084997;28;21279;-75
2021/06/08 10:20:33;;;;;;;27.80;20.97;;;20.90;1.00;;;;;;5084096;28;20461;-75
2021/06/08 10:23:17;;;;;;;28.43;23.37;;;21.00;1.00;;;;;;5078765;28;20458;-74
2021/06/08 10:25:46;;;;;;;27.00;22.10;;;21.00;99.90;;;;;;5076636;28;20551;-77
2021/06/08 10:28:16;;;;;;;23.97;20.40;;;21.10;1.00;;;;;;5065707;28;20557;-74
2021/06/08 10:30:45;;;;;;;24.63;21.27;;;21.10;1.00;;;;;;5085801;28;20581;-75
2021/06/08 10:33:33;;;;;;;24.93;21.40;;;21.20;1.00;;;;;;5084869;28;20565;-80
2021/06/08 10:36:12;;;;;;;23.83;20.63;;;21.20;99.90;;;;;;5079849;28;21033;-76
2021/06/08 10:38:40;;;;;;;23.80;21.27;;;21.30;99.90;;;;;;5084602;28;20446;-77
2021/06/08 10:41:09;;;;;;;24.37;20.47;;;21.40;99.90;;;;;;5084975;28;20453;-77
2021/06/08 10:43:37;;;;;;;24.10;21.50;;;21.40;99.90;;;;;;5085994;28;20821;-79
2021/06/08 10:46:15;;;;;;;25.53;21.97;;;21.50;1.00;;;;;;5082599;28;20558;-76
2021/06/08 10:48:47;;;;;;;26.37;21.63;;;21.50;16.10;;;;;;5085875;28;20529;-76
2021/06/08 10:51:20;;;;;;;22.20;19.80;;;21.50;99.90;;;;;;5084151;28;20545;-76
2021/06/08 10:53:50;;;;;;;22.70;20.27;;;21.50;99.90;;;;;;5082936;28;20489;-77
2021/06/08 10:56:28;;;;;;;25.10;21.40;;;21.50;99.90;;;;;;5114600;27;20474;-76
2021/06/08 10:58:58;;;;;;;23.40;20.90;;;21.60;99.90;;;;;;5086007;28;20439;-76
2021/06/08 11:01:49;;;;;;;23.73;20.20;;;21.60;1.00;;;;;;5084609;28;20454;-73
2021/06/08 11:04:22;;;;;;;24.67;19.33;;;21.60;99.90;;;;;;5118430;27;20466;-76
2021/06/08 11:06:53;;;;;;;26.40;19.30;;;21.60;99.90;;;;;;5088929;28;20481;-76
2021/06/08 11:09:40;;;;;;;23.53;21.03;;;21.60;99.90;;;;;;5086337;28;21083;-79
2021/06/08 11:12:25;;;;;;;21.27;18.97;;;21.60;99.90;;;;;;5124042;27;20490;-79
2021/06/08 11:14:59;;;;;;;20.87;18.67;;;21.70;99.90;;;;;;5074646;28;20475;-77
2021/06/08 11:17:36;;;;;;;18.97;16.97;;;21.80;78.80;;;;;;5084324;28;20458;-77
2021/06/08 11:20:21;;;;;;;19.97;16.80;;;21.80;1.00;;;;;;5075022;28;20463;-78
2021/06/08 11:22:57;;;;;;;18.73;16.90;;;21.80;99.90;;;;;;5086271;28;20478;-80
2021/06/08 11:25:45;;;;;;;21.97;19.57;;;21.80;25.60;;;;;;5088070;28;20481;-76
2021/06/08 11:28:15;;;;;;;23.43;19.27;;;21.80;1.00;;;;;;5109390;27;20688;-77
2021/06/08 11:30:44;;;;;;;21.73;19.40;;;21.80;1.00;;;;;;5115359;27;20552;-76
2021/06/08 11:33:29;;;;;;;20.83;18.40;;;21.90;1.00;;;;;;5084826;28;20459;-79
2021/06/08 11:35:57;;;;;;;22.70;19.53;;;21.80;1.00;;;;;;5077526;28;20482;-74
2021/06/08 11:38:33;;;;;;;22.23;19.83;;;21.80;99.90;;;;;;5085934;28;20453;-77
2021/06/08 11:41:03;;;;;;;21.70;19.40;;;21.80;99.90;;;;;;5086177;28;20999;-76
2021/06/08 11:43:57;;;;;;;19.33;17.43;;;21.80;99.90;;;;;;5087267;28;20497;-76
2021/06/08 11:46:54;;;;;;;20.13;17.77;;;21.90;99.90;;;;;;5085959;28;20480;-77
2021/06/08 11:49:24;;;;;;;19.17;17.30;;;21.90;99.90;;;;;;5084322;28;21027;-78
2021/06/08 11:52:05;;;;;;;17.70;16.00;;;21.90;1.00;;;;;;5081431;28;20459;-77
2021/06/08 11:54:46;;;;;;;20.57;18.30;;;21.90;1.00;;;;;;5116224;27;20443;-79
2021/06/08 11:57:31;;;;;;;18.93;16.93;;;21.90;1.00;;;;;;5121272;27;20455;-78
2021/06/08 12:00:01;;;;;;;20.73;18.63;;;21.90;1.00;;;;;;5083714;28;20436;-75
2021/06/08 12:02:37;;;;;;;20.77;18.57;;;21.90;1.00;;;;;;5087642;28;20461;-73
2021/06/08 12:05:09;;;;;;;20.63;18.40;;;21.90;1.00;;;;;;5086658;28;20481;-77
2021/06/08 12:07:45;;;;;;;18.97;17.07;;;21.90;1.00;;;;;;5089009;28;20530;-80
2021/06/08 12:10:15;;;;;;;22.83;19.37;;;22.00;1.00;;;;;;5095833;28;20566;-74
2021/06/08 12:12:49;;;;;;;22.60;20.43;;;22.00;1.00;;;;;;5075191;28;20468;-75
2021/06/08 12:15:25;;;;;;;22.33;19.37;;;22.00;1.00;;;;;;5120416;27;20475;-79
2021/06/08 12:17:58;;;;;;;21.67;19.47;;;22.10;1.00;;;;;;5085851;28;20470;-75
2021/06/08 12:20:27;;;;;;;23.40;19.80;;;22.00;1.00;;;;;;5088848;28;20813;-78
2021/06/08 12:22:55;;;;;;;24.23;18.93;;;22.00;1.00;;;;;;5085532;28;20464;-78
2021/06/08 12:25:24;;;;;;;21.83;19.63;;;22.00;1.00;;;;;;5086156;28;21122;-79
2021/06/08 12:27:52;;;;;;;23.60;17.90;;;22.10;49.00;;;;;;5087283;28;20447;-76
2021/06/08 12:30:25;;;;;;;19.90;17.90;;;22.10;1.00;;;;;;5085678;28;20833;-78
2021/06/08 12:32:58;;;;;;;20.53;18.63;;;22.20;66.80;;;;;;5085582;28;20829;-79
2021/06/08 12:35:32;;;;;;;18.37;16.37;;;22.30;1.00;;;;;;5087812;28;20536;-78
2021/06/08 12:38:14;;;;;;;18.10;16.20;;;22.40;1.00;;;;;;5084488;28;20453;-77
2021/06/08 12:40:43;;;;;;;18.03;16.23;;;22.50;1.00;;;;;;5099918;27;20592;-77
2021/06/08 12:43:11;;;;;;;19.77;16.47;;;22.60;99.90;;;;;;5085778;28;20460;-81
2021/06/08 12:45:40;;;;;;;17.13;15.40;;;22.60;99.90;;;;;;5085606;28;20478;-78
2021/06/08 12:48:19;;;;;;;17.53;15.77;;;22.70;91.70;;;;;;5083765;28;20617;-77
2021/06/08 12:50:47;;;;;;;17.53;15.77;;;22.70;1.00;;;;;;5083134;28;20543;-79
2021/06/08 12:53:21;;;;;;;16.40;14.73;;;22.80;1.00;;;;;;5087606;28;20510;-81